sensor_id;sensor_type;location;lat;lon;timestamp;temperature;humidity
810;DHT22;387;48.772;9.186;2023-10-19T00:00:52;12.40;88.40
810;DHT22;387;48.772;9.186;2023-10-19T00:03:21;12.50;88.30
810;DHT22;387;48.772;9.186;2023-10-19T00:05:49;12.50;88.30
810;DHT22;387;48.772;9.186;2023-10-19T00:08:15;12.40;88.10
810;DHT22;387;48.772;9.186;2023-10-19T00:10:51;12.40;88.10
810;DHT22;387;48.772;9.186;2023-10-19T00:13:33;12.40;88.30
810;DHT22;387;48.772;9.186;2023-10-19T00:16:01;12.40;88.40
810;DHT22;387;48.772;9.186;2023-10-19T00:18:32;12.50;88.60
810;DHT22;387;48.772;9.186;2023-10-19T00:21:00;12.50;88.70
810;DHT22;387;48.772;9.186;2023-10-19T00:23:36;12.50;88.70
810;DHT22;387;48.772;9.186;2023-10-19T00:26:04;12.60;88.70
810;DHT22;387;48.772;9.186;2023-10-19T00:28:34;12.60;88.60
810;DHT22;387;48.772;9.186;2023-10-19T00:31:01;12.60;88.40
810;DHT22;387;48.772;9.186;2023-10-19T00:33:37;12.70;88.40
810;DHT22;387;48.772;9.186;2023-10-19T00:36:09;12.70;88.40
810;DHT22;387;48.772;9.186;2023-10-19T00:38:40;12.70;88.30
810;DHT22;387;48.772;9.186;2023-10-19T00:41:21;12.80;88.40
810;DHT22;387;48.772;9.186;2023-10-19T00:43:54;12.90;88.60
810;DHT22;387;48.772;9.186;2023-10-19T00:46:36;12.90;88.60
810;DHT22;387;48.772;9.186;2023-10-19T00:49:08;13.00;88.60
810;DHT22;387;48.772;9.186;2023-10-19T00:51:42;13.00;88.60
810;DHT22;387;48.772;9.186;2023-10-19T00:54:27;13.00;88.60
810;DHT22;387;48.772;9.186;2023-10-19T00:56:59;13.00;88.60
810;DHT22;387;48.772;9.186;2023-10-19T00:59:30;13.00;88.70
810;DHT22;387;48.772;9.186;2023-10-19T01:01:56;13.00;88.90
810;DHT22;387;48.772;9.186;2023-10-19T01:04:52;13.10;89.00
810;DHT22;387;48.772;9.186;2023-10-19T01:07:25;13.10;89.20
810;DHT22;387;48.772;9.186;2023-10-19T01:10:04;13.20;89.20
810;DHT22;387;48.772;9.186;2023-10-19T01:12:48;13.20;89.30
810;DHT22;387;48.772;9.186;2023-10-19T01:15:17;13.30;89.50
810;DHT22;387;48.772;9.186;2023-10-19T01:17:48;13.40;89.30
810;DHT22;387;48.772;9.186;2023-10-19T01:20:20;13.60;89.90
810;DHT22;387;48.772;9.186;2023-10-19T01:25:53;13.60;89.20
810;DHT22;387;48.772;9.186;2023-10-19T01:28:20;13.60;89.20
810;DHT22;387;48.772;9.186;2023-10-19T01:30:50;13.50;89.00
810;DHT22;387;48.772;9.186;2023-10-19T01:33:19;13.60;89.20
810;DHT22;387;48.772;9.186;2023-10-19T01:35:45;13.60;89.20
810;DHT22;387;48.772;9.186;2023-10-19T01:38:30;13.60;89.30
810;DHT22;387;48.772;9.186;2023-10-19T01:40:57;13.60;89.30
810;DHT22;387;48.772;9.186;2023-10-19T01:43:25;13.60;89.20
810;DHT22;387;48.772;9.186;2023-10-19T01:45:56;13.60;89.30
810;DHT22;387;48.772;9.186;2023-10-19T01:48:21;13.60;89.30
810;DHT22;387;48.772;9.186;2023-10-19T01:51:03;13.70;89.50
810;DHT22;387;48.772;9.186;2023-10-19T01:53:31;13.70;89.20
810;DHT22;387;48.772;9.186;2023-10-19T01:55:57;13.70;88.90
810;DHT22;387;48.772;9.186;2023-10-19T01:58:25;13.70;88.40
810;DHT22;387;48.772;9.186;2023-10-19T02:00:54;13.60;88.30
810;DHT22;387;48.772;9.186;2023-10-19T02:03:21;13.60;88.30
810;DHT22;387;48.772;9.186;2023-10-19T02:06:00;13.50;88.40
810;DHT22;387;48.772;9.186;2023-10-19T02:08:26;13.50;88.70
810;DHT22;387;48.772;9.186;2023-10-19T02:10:55;13.50;88.70
810;DHT22;387;48.772;9.186;2023-10-19T02:13:21;13.50;88.70
810;DHT22;387;48.772;9.186;2023-10-19T02:15:46;13.50;89.00
810;DHT22;387;48.772;9.186;2023-10-19T02:18:12;13.50;89.00
810;DHT22;387;48.772;9.186;2023-10-19T02:20:38;13.60;89.20
810;DHT22;387;48.772;9.186;2023-10-19T02:23:07;13.60;89.20
810;DHT22;387;48.772;9.186;2023-10-19T02:25:33;13.60;89.30
810;DHT22;387;48.772;9.186;2023-10-19T02:28:03;13.60;89.20
810;DHT22;387;48.772;9.186;2023-10-19T02:30:32;13.50;89.20
810;DHT22;387;48.772;9.186;2023-10-19T02:32:59;13.50;89.30
810;DHT22;387;48.772;9.186;2023-10-19T02:35:25;13.50;89.50
810;DHT22;387;48.772;9.186;2023-10-19T02:37:52;13.50;89.60
810;DHT22;387;48.772;9.186;2023-10-19T02:40:18;13.50;89.60
810;DHT22;387;48.772;9.186;2023-10-19T02:42:45;13.40;89.50
810;DHT22;387;48.772;9.186;2023-10-19T02:45:17;13.40;89.50
810;DHT22;387;48.772;9.186;2023-10-19T02:47:44;13.30;89.60
810;DHT22;387;48.772;9.186;2023-10-19T02:50:10;13.30;89.60
810;DHT22;387;48.772;9.186;2023-10-19T02:52:39;13.10;89.30
810;DHT22;387;48.772;9.186;2023-10-19T02:55:07;13.00;89.20
810;DHT22;387;48.772;9.186;2023-10-19T02:57:32;12.90;89.50
810;DHT22;387;48.772;9.186;2023-10-19T02:59:58;12.90;89.50
810;DHT22;387;48.772;9.186;2023-10-19T03:02:24;12.80;89.60
810;DHT22;387;48.772;9.186;2023-10-19T03:04:53;12.70;89.60
810;DHT22;387;48.772;9.186;2023-10-19T03:07:19;12.70;89.90
810;DHT22;387;48.772;9.186;2023-10-19T03:09:44;12.60;90.00
810;DHT22;387;48.772;9.186;2023-10-19T03:12:20;12.60;90.10
810;DHT22;387;48.772;9.186;2023-10-19T03:14:46;12.60;90.10
810;DHT22;387;48.772;9.186;2023-10-19T03:17:13;12.50;90.10
810;DHT22;387;48.772;9.186;2023-10-19T03:19:39;12.40;90.20
810;DHT22;387;48.772;9.186;2023-10-19T03:22:05;12.40;90.20
810;DHT22;387;48.772;9.186;2023-10-19T03:24:34;12.30;90.20
810;DHT22;387;48.772;9.186;2023-10-19T03:27:07;12.40;90.40
810;DHT22;387;48.772;9.186;2023-10-19T03:29:43;12.40;90.40
810;DHT22;387;48.772;9.186;2023-10-19T03:32:28;12.40;90.50
810;DHT22;387;48.772;9.186;2023-10-19T03:34:58;12.30;90.40
810;DHT22;387;48.772;9.186;2023-10-19T03:37:27;12.30;90.50
810;DHT22;387;48.772;9.186;2023-10-19T03:39:57;12.20;90.50
810;DHT22;387;48.772;9.186;2023-10-19T03:42:24;12.10;90.60
810;DHT22;387;48.772;9.186;2023-10-19T03:44:58;12.10;90.70
810;DHT22;387;48.772;9.186;2023-10-19T03:47:25;12.40;91.10
810;DHT22;387;48.772;9.186;2023-10-19T03:49:52;12.60;91.40
810;DHT22;387;48.772;9.186;2023-10-19T03:52:18;12.80;91.70
810;DHT22;387;48.772;9.186;2023-10-19T03:54:44;12.80;91.80
810;DHT22;387;48.772;9.186;2023-10-19T03:57:12;12.80;91.80
810;DHT22;387;48.772;9.186;2023-10-19T03:59:40;12.80;91.80
810;DHT22;387;48.772;9.186;2023-10-19T04:02:08;12.80;91.80
810;DHT22;387;48.772;9.186;2023-10-19T04:04:41;12.90;91.80
810;DHT22;387;48.772;9.186;2023-10-19T04:07:13;13.00;91.90
810;DHT22;387;48.772;9.186;2023-10-19T04:09:50;13.10;92.00
810;DHT22;387;48.772;9.186;2023-10-19T04:12:39;13.20;91.90
810;DHT22;387;48.772;9.186;2023-10-19T04:15:08;13.20;91.60
810;DHT22;387;48.772;9.186;2023-10-19T04:17:41;13.10;91.20
810;DHT22;387;48.772;9.186;2023-10-19T04:20:11;13.10;91.00
810;DHT22;387;48.772;9.186;2023-10-19T04:23:00;13.10;90.80
810;DHT22;387;48.772;9.186;2023-10-19T04:25:31;13.10;90.60
810;DHT22;387;48.772;9.186;2023-10-19T04:27:57;13.10;90.40
810;DHT22;387;48.772;9.186;2023-10-19T04:30:22;13.00;90.30
810;DHT22;387;48.772;9.186;2023-10-19T04:32:49;13.00;90.20
810;DHT22;387;48.772;9.186;2023-10-19T04:35:16;13.00;90.20
810;DHT22;387;48.772;9.186;2023-10-19T04:37:52;13.00;90.20
810;DHT22;387;48.772;9.186;2023-10-19T04:40:21;13.00;90.20
810;DHT22;387;48.772;9.186;2023-10-19T04:42:51;13.00;90.10
810;DHT22;387;48.772;9.186;2023-10-19T04:45:17;12.90;90.10
810;DHT22;387;48.772;9.186;2023-10-19T04:47:43;12.80;90.10
810;DHT22;387;48.772;9.186;2023-10-19T04:50:09;12.70;89.90
810;DHT22;387;48.772;9.186;2023-10-19T04:52:38;12.60;90.00
810;DHT22;387;48.772;9.186;2023-10-19T04:55:04;12.60;90.00
810;DHT22;387;48.772;9.186;2023-10-19T04:57:30;12.50;90.00
810;DHT22;387;48.772;9.186;2023-10-19T04:59:56;12.50;90.10
810;DHT22;387;48.772;9.186;2023-10-19T05:02:22;12.50;90.20
810;DHT22;387;48.772;9.186;2023-10-19T05:04:48;12.60;90.30
810;DHT22;387;48.772;9.186;2023-10-19T05:07:14;12.70;90.40
810;DHT22;387;48.772;9.186;2023-10-19T05:09:43;12.80;90.60
810;DHT22;387;48.772;9.186;2023-10-19T05:12:09;12.90;90.60
810;DHT22;387;48.772;9.186;2023-10-19T05:14:36;12.80;90.70
810;DHT22;387;48.772;9.186;2023-10-19T05:17:03;12.70;90.80
810;DHT22;387;48.772;9.186;2023-10-19T05:19:32;12.80;90.90
810;DHT22;387;48.772;9.186;2023-10-19T05:21:59;12.80;90.90
810;DHT22;387;48.772;9.186;2023-10-19T05:24:26;12.70;90.70
810;DHT22;387;48.772;9.186;2023-10-19T05:26:53;12.60;90.70
810;DHT22;387;48.772;9.186;2023-10-19T05:29:19;12.60;90.70
810;DHT22;387;48.772;9.186;2023-10-19T05:31:45;12.50;90.70
810;DHT22;387;48.772;9.186;2023-10-19T05:34:10;12.40;90.70
810;DHT22;387;48.772;9.186;2023-10-19T05:36:36;12.30;90.70
810;DHT22;387;48.772;9.186;2023-10-19T05:39:01;12.30;90.80
810;DHT22;387;48.772;9.186;2023-10-19T05:41:29;12.40;91.00
810;DHT22;387;48.772;9.186;2023-10-19T05:43:56;12.40;91.00
810;DHT22;387;48.772;9.186;2023-10-19T05:46:22;12.50;91.10
810;DHT22;387;48.772;9.186;2023-10-19T05:48:50;12.50;91.00
810;DHT22;387;48.772;9.186;2023-10-19T05:51:16;12.50;91.00
810;DHT22;387;48.772;9.186;2023-10-19T05:53:42;12.50;90.90
810;DHT22;387;48.772;9.186;2023-10-19T05:56:10;12.40;90.80
810;DHT22;387;48.772;9.186;2023-10-19T05:58:36;12.40;91.00
810;DHT22;387;48.772;9.186;2023-10-19T06:01:02;12.40;91.10
810;DHT22;387;48.772;9.186;2023-10-19T06:03:28;12.40;91.10
810;DHT22;387;48.772;9.186;2023-10-19T06:05:55;12.50;91.10
810;DHT22;387;48.772;9.186;2023-10-19T06:08:22;12.60;91.20
810;DHT22;387;48.772;9.186;2023-10-19T06:10:54;12.60;91.20
810;DHT22;387;48.772;9.186;2023-10-19T06:13:20;12.60;91.00
810;DHT22;387;48.772;9.186;2023-10-19T06:15:48;12.50;90.90
810;DHT22;387;48.772;9.186;2023-10-19T06:18:14;12.60;90.80
810;DHT22;387;48.772;9.186;2023-10-19T06:20:46;12.50;90.80
810;DHT22;387;48.772;9.186;2023-10-19T06:23:13;12.50;90.70
810;DHT22;387;48.772;9.186;2023-10-19T06:25:39;12.50;90.80
810;DHT22;387;48.772;9.186;2023-10-19T06:28:05;12.50;90.70
810;DHT22;387;48.772;9.186;2023-10-19T06:30:32;12.60;90.70
810;DHT22;387;48.772;9.186;2023-10-19T06:33:00;12.60;90.70
810;DHT22;387;48.772;9.186;2023-10-19T06:35:27;12.60;90.80
810;DHT22;387;48.772;9.186;2023-10-19T06:37:54;12.70;90.80
810;DHT22;387;48.772;9.186;2023-10-19T06:40:24;12.70;90.90
810;DHT22;387;48.772;9.186;2023-10-19T06:42:54;12.70;90.80
810;DHT22;387;48.772;9.186;2023-10-19T06:45:21;12.70;90.80
810;DHT22;387;48.772;9.186;2023-10-19T06:47:48;12.80;90.80
810;DHT22;387;48.772;9.186;2023-10-19T06:50:16;12.80;90.70
810;DHT22;387;48.772;9.186;2023-10-19T06:52:46;12.70;90.70
810;DHT22;387;48.772;9.186;2023-10-19T06:55:13;12.80;90.80
810;DHT22;387;48.772;9.186;2023-10-19T06:57:47;12.90;90.80
810;DHT22;387;48.772;9.186;2023-10-19T07:00:18;13.00;90.70
810;DHT22;387;48.772;9.186;2023-10-19T07:02:48;13.10;90.60
810;DHT22;387;48.772;9.186;2023-10-19T07:05:16;13.10;90.40
810;DHT22;387;48.772;9.186;2023-10-19T07:07:47;13.20;89.90
810;DHT22;387;48.772;9.186;2023-10-19T07:10:14;13.20;89.50
810;DHT22;387;48.772;9.186;2023-10-19T07:12:43;13.20;89.20
810;DHT22;387;48.772;9.186;2023-10-19T07:15:09;13.10;89.00
810;DHT22;387;48.772;9.186;2023-10-19T07:17:42;13.10;89.20
810;DHT22;387;48.772;9.186;2023-10-19T07:20:10;13.10;89.20
810;DHT22;387;48.772;9.186;2023-10-19T07:22:51;13.10;89.30
810;DHT22;387;48.772;9.186;2023-10-19T07:25:16;13.20;89.50
810;DHT22;387;48.772;9.186;2023-10-19T07:27:46;13.20;89.30
810;DHT22;387;48.772;9.186;2023-10-19T07:30:12;13.30;89.50
810;DHT22;387;48.772;9.186;2023-10-19T07:32:40;13.30;89.20
810;DHT22;387;48.772;9.186;2023-10-19T07:35:06;13.40;89.20
810;DHT22;387;48.772;9.186;2023-10-19T07:37:32;13.50;89.20
810;DHT22;387;48.772;9.186;2023-10-19T07:39:57;13.60;89.00
810;DHT22;387;48.772;9.186;2023-10-19T07:42:24;13.70;88.70
810;DHT22;387;48.772;9.186;2023-10-19T07:44:51;13.80;88.40
810;DHT22;387;48.772;9.186;2023-10-19T07:47:16;13.90;88.30
810;DHT22;387;48.772;9.186;2023-10-19T07:49:42;14.00;88.00
810;DHT22;387;48.772;9.186;2023-10-19T07:52:08;14.00;87.80
810;DHT22;387;48.772;9.186;2023-10-19T07:54:36;14.20;87.80
810;DHT22;387;48.772;9.186;2023-10-19T07:57:03;14.20;87.60
810;DHT22;387;48.772;9.186;2023-10-19T07:59:34;14.30;87.60
810;DHT22;387;48.772;9.186;2023-10-19T08:02:01;14.40;87.60
810;DHT22;387;48.772;9.186;2023-10-19T08:04:30;14.50;87.40
810;DHT22;387;48.772;9.186;2023-10-19T08:06:57;14.50;87.40
810;DHT22;387;48.772;9.186;2023-10-19T08:09:23;14.50;87.30
810;DHT22;387;48.772;9.186;2023-10-19T08:11:50;14.50;87.10
810;DHT22;387;48.772;9.186;2023-10-19T08:14:18;14.60;87.00
810;DHT22;387;48.772;9.186;2023-10-19T08:16:45;14.60;86.80
810;DHT22;387;48.772;9.186;2023-10-19T08:19:10;14.50;86.20
810;DHT22;387;48.772;9.186;2023-10-19T08:21:37;14.40;85.70
810;DHT22;387;48.772;9.186;2023-10-19T08:24:03;14.30;85.90
810;DHT22;387;48.772;9.186;2023-10-19T08:26:30;14.30;86.20
810;DHT22;387;48.772;9.186;2023-10-19T08:28:56;14.40;86.50
810;DHT22;387;48.772;9.186;2023-10-19T08:31:24;14.60;86.60
810;DHT22;387;48.772;9.186;2023-10-19T08:33:50;14.80;86.00
810;DHT22;387;48.772;9.186;2023-10-19T08:36:19;14.90;85.50
810;DHT22;387;48.772;9.186;2023-10-19T08:38:45;15.00;85.20
810;DHT22;387;48.772;9.186;2023-10-19T08:41:12;15.10;85.20
810;DHT22;387;48.772;9.186;2023-10-19T08:43:38;15.30;85.00
810;DHT22;387;48.772;9.186;2023-10-19T08:46:05;15.30;85.00
810;DHT22;387;48.772;9.186;2023-10-19T08:48:35;15.50;84.90
810;DHT22;387;48.772;9.186;2023-10-19T08:51:04;15.50;84.60
810;DHT22;387;48.772;9.186;2023-10-19T08:53:37;15.60;84.30
810;DHT22;387;48.772;9.186;2023-10-19T08:56:06;15.60;83.70
810;DHT22;387;48.772;9.186;2023-10-19T08:58:33;15.60;83.60
810;DHT22;387;48.772;9.186;2023-10-19T09:00:59;15.60;83.70
810;DHT22;387;48.772;9.186;2023-10-19T09:03:31;15.70;83.80
810;DHT22;387;48.772;9.186;2023-10-19T09:06:01;15.80;83.80
810;DHT22;387;48.772;9.186;2023-10-19T09:08:27;15.90;84.00
810;DHT22;387;48.772;9.186;2023-10-19T09:11:09;16.10;83.70
810;DHT22;387;48.772;9.186;2023-10-19T09:13:54;16.20;83.40
810;DHT22;387;48.772;9.186;2023-10-19T09:16:21;16.30;83.00
810;DHT22;387;48.772;9.186;2023-10-19T09:18:50;16.50;82.50
810;DHT22;387;48.772;9.186;2023-10-19T09:21:18;16.80;81.80
810;DHT22;387;48.772;9.186;2023-10-19T09:23:55;17.00;81.50
810;DHT22;387;48.772;9.186;2023-10-19T09:26:21;17.10;80.80
810;DHT22;387;48.772;9.186;2023-10-19T09:28:50;17.30;80.50
810;DHT22;387;48.772;9.186;2023-10-19T09:31:17;17.30;80.60
810;DHT22;387;48.772;9.186;2023-10-19T09:33:45;17.50;79.90
810;DHT22;387;48.772;9.186;2023-10-19T09:36:12;17.60;79.70
810;DHT22;387;48.772;9.186;2023-10-19T09:38:49;17.60;80.20
810;DHT22;387;48.772;9.186;2023-10-19T09:41:21;17.70;79.50
810;DHT22;387;48.772;9.186;2023-10-19T09:43:48;17.80;79.50
810;DHT22;387;48.772;9.186;2023-10-19T09:46:23;17.80;79.50
810;DHT22;387;48.772;9.186;2023-10-19T09:48:49;17.90;79.60
810;DHT22;387;48.772;9.186;2023-10-19T09:51:17;18.00;79.50
810;DHT22;387;48.772;9.186;2023-10-19T09:53:47;18.20;77.70
810;DHT22;387;48.772;9.186;2023-10-19T09:56:19;18.30;77.70
810;DHT22;387;48.772;9.186;2023-10-19T09:58:49;18.40;77.70
810;DHT22;387;48.772;9.186;2023-10-19T10:01:16;18.50;77.40
810;DHT22;387;48.772;9.186;2023-10-19T10:03:52;18.40;77.10
810;DHT22;387;48.772;9.186;2023-10-19T10:06:27;18.50;75.40
810;DHT22;387;48.772;9.186;2023-10-19T10:08:54;18.50;75.50
810;DHT22;387;48.772;9.186;2023-10-19T10:11:28;18.50;75.20
810;DHT22;387;48.772;9.186;2023-10-19T10:13:56;18.50;75.20
810;DHT22;387;48.772;9.186;2023-10-19T10:16:23;18.60;75.50
810;DHT22;387;48.772;9.186;2023-10-19T10:18:51;18.50;75.70
810;DHT22;387;48.772;9.186;2023-10-19T10:21:20;18.60;75.50
810;DHT22;387;48.772;9.186;2023-10-19T10:23:51;18.60;75.70
810;DHT22;387;48.772;9.186;2023-10-19T10:26:18;18.60;75.80
810;DHT22;387;48.772;9.186;2023-10-19T10:28:48;18.70;76.20
810;DHT22;387;48.772;9.186;2023-10-19T10:31:19;18.80;75.80
810;DHT22;387;48.772;9.186;2023-10-19T10:33:50;18.80;76.10
810;DHT22;387;48.772;9.186;2023-10-19T10:36:18;18.90;75.70
810;DHT22;387;48.772;9.186;2023-10-19T10:38:51;19.00;75.20
810;DHT22;387;48.772;9.186;2023-10-19T10:43:56;18.90;75.40
810;DHT22;387;48.772;9.186;2023-10-19T10:46:23;18.80;75.70
810;DHT22;387;48.772;9.186;2023-10-19T10:48:49;18.80;75.70
810;DHT22;387;48.772;9.186;2023-10-19T10:51:26;18.80;75.80
810;DHT22;387;48.772;9.186;2023-10-19T10:53:55;18.80;75.70
810;DHT22;387;48.772;9.186;2023-10-19T10:56:23;18.70;76.10
810;DHT22;387;48.772;9.186;2023-10-19T10:58:49;18.40;76.50
810;DHT22;387;48.772;9.186;2023-10-19T11:01:27;18.40;77.10
810;DHT22;387;48.772;9.186;2023-10-19T11:04:08;18.40;77.10
810;DHT22;387;48.772;9.186;2023-10-19T11:06:47;18.20;77.80
810;DHT22;387;48.772;9.186;2023-10-19T11:09:12;18.10;78.30
810;DHT22;387;48.772;9.186;2023-10-19T11:11:40;18.00;78.70
810;DHT22;387;48.772;9.186;2023-10-19T11:14:10;18.10;78.90
810;DHT22;387;48.772;9.186;2023-10-19T11:16:36;18.10;79.30
810;DHT22;387;48.772;9.186;2023-10-19T11:19:04;18.00;79.60
810;DHT22;387;48.772;9.186;2023-10-19T11:21:30;17.90;80.20
810;DHT22;387;48.772;9.186;2023-10-19T11:23:55;17.70;80.60
810;DHT22;387;48.772;9.186;2023-10-19T11:26:24;17.60;81.10
810;DHT22;387;48.772;9.186;2023-10-19T11:29:02;17.50;81.40
810;DHT22;387;48.772;9.186;2023-10-19T11:31:33;17.40;82.10
810;DHT22;387;48.772;9.186;2023-10-19T11:34:05;17.30;82.40
810;DHT22;387;48.772;9.186;2023-10-19T11:36:31;17.20;82.70
810;DHT22;387;48.772;9.186;2023-10-19T11:38:57;17.10;83.10
810;DHT22;387;48.772;9.186;2023-10-19T11:41:23;17.00;83.60
810;DHT22;387;48.772;9.186;2023-10-19T11:43:49;16.90;84.40
810;DHT22;387;48.772;9.186;2023-10-19T11:46:16;16.80;84.70
810;DHT22;387;48.772;9.186;2023-10-19T11:48:43;16.70;85.00
810;DHT22;387;48.772;9.186;2023-10-19T11:51:09;16.60;85.30
810;DHT22;387;48.772;9.186;2023-10-19T11:53:37;16.60;85.50
810;DHT22;387;48.772;9.186;2023-10-19T11:56:05;16.60;85.70
810;DHT22;387;48.772;9.186;2023-10-19T11:58:32;16.60;85.70
810;DHT22;387;48.772;9.186;2023-10-19T12:01:01;16.60;85.90
810;DHT22;387;48.772;9.186;2023-10-19T12:03:28;16.70;85.70
810;DHT22;387;48.772;9.186;2023-10-19T12:05:54;16.70;85.60
810;DHT22;387;48.772;9.186;2023-10-19T12:08:20;16.70;85.90
810;DHT22;387;48.772;9.186;2023-10-19T12:10:46;16.70;86.00
810;DHT22;387;48.772;9.186;2023-10-19T12:13:11;16.80;86.20
810;DHT22;387;48.772;9.186;2023-10-19T12:15:37;16.80;86.30
810;DHT22;387;48.772;9.186;2023-10-19T12:18:03;16.80;86.50
810;DHT22;387;48.772;9.186;2023-10-19T12:20:29;16.90;86.60
810;DHT22;387;48.772;9.186;2023-10-19T12:22:58;16.90;86.60
810;DHT22;387;48.772;9.186;2023-10-19T12:25:25;16.90;86.90
810;DHT22;387;48.772;9.186;2023-10-19T12:27:58;17.00;87.00
810;DHT22;387;48.772;9.186;2023-10-19T12:30:24;16.90;87.00
810;DHT22;387;48.772;9.186;2023-10-19T12:32:52;16.90;86.80
810;DHT22;387;48.772;9.186;2023-10-19T12:35:18;16.80;86.80
810;DHT22;387;48.772;9.186;2023-10-19T12:37:55;16.90;87.00
810;DHT22;387;48.772;9.186;2023-10-19T12:40:21;16.80;86.80
810;DHT22;387;48.772;9.186;2023-10-19T12:42:54;16.70;87.00
810;DHT22;387;48.772;9.186;2023-10-19T12:45:23;16.80;87.00
810;DHT22;387;48.772;9.186;2023-10-19T12:47:49;16.80;87.30
810;DHT22;387;48.772;9.186;2023-10-19T12:50:21;16.80;87.30
810;DHT22;387;48.772;9.186;2023-10-19T12:52:49;16.80;87.40
810;DHT22;387;48.772;9.186;2023-10-19T12:55:16;16.80;87.60
810;DHT22;387;48.772;9.186;2023-10-19T12:57:42;16.70;87.40
810;DHT22;387;48.772;9.186;2023-10-19T13:00:08;16.70;87.40
810;DHT22;387;48.772;9.186;2023-10-19T13:02:50;16.50;87.70
810;DHT22;387;48.772;9.186;2023-10-19T13:05:16;16.40;88.10
810;DHT22;387;48.772;9.186;2023-10-19T13:07:44;16.40;88.30
810;DHT22;387;48.772;9.186;2023-10-19T13:10:10;16.30;88.60
810;DHT22;387;48.772;9.186;2023-10-19T13:12:37;16.40;89.00
810;DHT22;387;48.772;9.186;2023-10-19T13:15:04;16.50;89.20
810;DHT22;387;48.772;9.186;2023-10-19T13:17:32;16.50;88.90
810;DHT22;387;48.772;9.186;2023-10-19T13:19:58;16.60;88.90
810;DHT22;387;48.772;9.186;2023-10-19T13:22:26;16.60;88.60
810;DHT22;387;48.772;9.186;2023-10-19T13:24:52;16.70;88.60
810;DHT22;387;48.772;9.186;2023-10-19T13:27:18;16.70;88.60
810;DHT22;387;48.772;9.186;2023-10-19T13:29:47;16.80;88.40
810;DHT22;387;48.772;9.186;2023-10-19T13:32:13;16.70;88.40
810;DHT22;387;48.772;9.186;2023-10-19T13:34:38;16.70;88.40
810;DHT22;387;48.772;9.186;2023-10-19T13:37:05;16.60;88.40
810;DHT22;387;48.772;9.186;2023-10-19T13:39:33;16.70;88.40
810;DHT22;387;48.772;9.186;2023-10-19T13:41:58;16.80;88.10
810;DHT22;387;48.772;9.186;2023-10-19T13:44:24;16.70;87.80
810;DHT22;387;48.772;9.186;2023-10-19T13:46:52;16.80;88.00
810;DHT22;387;48.772;9.186;2023-10-19T13:49:19;16.80;87.80
810;DHT22;387;48.772;9.186;2023-10-19T13:51:48;16.80;87.70
810;DHT22;387;48.772;9.186;2023-10-19T13:54:13;16.80;87.60
810;DHT22;387;48.772;9.186;2023-10-19T13:56:39;16.80;87.30
810;DHT22;387;48.772;9.186;2023-10-19T13:59:05;16.70;87.30
810;DHT22;387;48.772;9.186;2023-10-19T14:01:30;16.60;87.10
810;DHT22;387;48.772;9.186;2023-10-19T14:03:56;16.50;87.30
810;DHT22;387;48.772;9.186;2023-10-19T14:06:22;16.60;87.70
810;DHT22;387;48.772;9.186;2023-10-19T14:08:49;16.60;88.00
810;DHT22;387;48.772;9.186;2023-10-19T14:11:15;16.70;88.10
810;DHT22;387;48.772;9.186;2023-10-19T14:13:40;16.70;88.10
810;DHT22;387;48.772;9.186;2023-10-19T14:16:08;16.60;88.10
810;DHT22;387;48.772;9.186;2023-10-19T14:18:35;16.70;88.30
810;DHT22;387;48.772;9.186;2023-10-19T14:21:09;16.70;88.10
810;DHT22;387;48.772;9.186;2023-10-19T14:23:36;16.70;88.00
810;DHT22;387;48.772;9.186;2023-10-19T14:26:04;16.60;87.70
810;DHT22;387;48.772;9.186;2023-10-19T14:28:29;16.50;87.70
810;DHT22;387;48.772;9.186;2023-10-19T14:30:59;16.50;87.80
810;DHT22;387;48.772;9.186;2023-10-19T14:33:25;16.50;87.80
810;DHT22;387;48.772;9.186;2023-10-19T14:35:51;16.60;88.00
810;DHT22;387;48.772;9.186;2023-10-19T14:38:16;16.60;88.00
810;DHT22;387;48.772;9.186;2023-10-19T14:40:42;16.60;87.80
810;DHT22;387;48.772;9.186;2023-10-19T14:43:10;16.60;87.60
810;DHT22;387;48.772;9.186;2023-10-19T14:45:36;16.60;87.70
810;DHT22;387;48.772;9.186;2023-10-19T14:48:02;16.60;87.70
810;DHT22;387;48.772;9.186;2023-10-19T14:50:29;16.60;87.60
810;DHT22;387;48.772;9.186;2023-10-19T14:52:56;16.60;87.30
810;DHT22;387;48.772;9.186;2023-10-19T14:55:22;16.50;86.90
810;DHT22;387;48.772;9.186;2023-10-19T14:57:50;16.40;87.00
810;DHT22;387;48.772;9.186;2023-10-19T15:00:18;16.50;87.30
810;DHT22;387;48.772;9.186;2023-10-19T15:02:51;16.40;87.00
810;DHT22;387;48.772;9.186;2023-10-19T15:05:18;16.40;87.30
810;DHT22;387;48.772;9.186;2023-10-19T15:07:48;16.40;87.60
810;DHT22;387;48.772;9.186;2023-10-19T15:10:26;16.30;87.60
810;DHT22;387;48.772;9.186;2023-10-19T15:12:53;16.40;87.70
810;DHT22;387;48.772;9.186;2023-10-19T15:15:19;16.40;87.80
810;DHT22;387;48.772;9.186;2023-10-19T15:17:46;16.50;87.80
810;DHT22;387;48.772;9.186;2023-10-19T15:20:14;16.50;87.80
810;DHT22;387;48.772;9.186;2023-10-19T15:22:43;16.60;87.70
810;DHT22;387;48.772;9.186;2023-10-19T15:25:09;16.60;87.60
810;DHT22;387;48.772;9.186;2023-10-19T15:27:39;16.60;87.30
810;DHT22;387;48.772;9.186;2023-10-19T15:30:07;16.60;87.10
810;DHT22;387;48.772;9.186;2023-10-19T15:32:34;16.60;87.10
810;DHT22;387;48.772;9.186;2023-10-19T15:35:01;16.60;87.10
810;DHT22;387;48.772;9.186;2023-10-19T15:37:27;16.50;87.40
810;DHT22;387;48.772;9.186;2023-10-19T15:39:52;16.40;87.60
810;DHT22;387;48.772;9.186;2023-10-19T15:42:19;16.50;87.60
810;DHT22;387;48.772;9.186;2023-10-19T15:44:47;16.50;87.30
810;DHT22;387;48.772;9.186;2023-10-19T15:47:13;16.40;87.40
810;DHT22;387;48.772;9.186;2023-10-19T15:49:48;16.40;87.60
810;DHT22;387;48.772;9.186;2023-10-19T15:52:18;16.50;87.60
810;DHT22;387;48.772;9.186;2023-10-19T15:54:47;16.40;87.30
810;DHT22;387;48.772;9.186;2023-10-19T15:57:13;16.40;87.30
810;DHT22;387;48.772;9.186;2023-10-19T15:59:40;16.40;87.40
810;DHT22;387;48.772;9.186;2023-10-19T16:02:06;16.40;87.40
810;DHT22;387;48.772;9.186;2023-10-19T16:04:32;16.40;87.30
810;DHT22;387;48.772;9.186;2023-10-19T16:06:57;16.30;87.30
810;DHT22;387;48.772;9.186;2023-10-19T16:09:23;16.40;86.80
810;DHT22;387;48.772;9.186;2023-10-19T16:11:48;16.30;86.60
810;DHT22;387;48.772;9.186;2023-10-19T16:14:16;16.30;86.90
810;DHT22;387;48.772;9.186;2023-10-19T16:16:45;16.30;87.30
810;DHT22;387;48.772;9.186;2023-10-19T16:19:12;16.30;87.30
810;DHT22;387;48.772;9.186;2023-10-19T16:21:38;16.30;87.30
810;DHT22;387;48.772;9.186;2023-10-19T16:24:05;16.30;87.40
810;DHT22;387;48.772;9.186;2023-10-19T16:26:31;16.40;87.40
810;DHT22;387;48.772;9.186;2023-10-19T16:28:57;16.40;87.30
810;DHT22;387;48.772;9.186;2023-10-19T16:31:23;16.30;87.30
810;DHT22;387;48.772;9.186;2023-10-19T16:33:49;16.30;87.40
810;DHT22;387;48.772;9.186;2023-10-19T16:36:15;16.30;87.60
810;DHT22;387;48.772;9.186;2023-10-19T16:38:40;16.30;87.70
810;DHT22;387;48.772;9.186;2023-10-19T16:41:06;16.30;87.70
810;DHT22;387;48.772;9.186;2023-10-19T16:43:32;16.30;87.80
810;DHT22;387;48.772;9.186;2023-10-19T16:45:58;16.30;87.80
810;DHT22;387;48.772;9.186;2023-10-19T16:48:25;16.20;87.80